Portada
METAR-TAF:

METAR-TAF

Aeroports :

Searcy Municipal Airport

Searcy, Arkansas, Estats Units d'Amèrica

latitud: 35-12-43N, longitud: 091-44-14W, altitud: 81 m

Observació

L'informe es va fer fa 1 hora i 3 minuts, a les 17:56 UTC
Vent 5 kt amb direcció variable
Temperatura 30°C
Humitat 46%
Pressió 1020 hPa
Visibilitat: 16.1 km
Cel clar

METAR: KSRC 021756Z AUTO VRB05KT 10SM CLR 30/17 A3011 RMK AO2 SLP193 T03000167 10300 20167 58012

Hora: 13:59 (18:59 UTC)


TAF: manca

Observacions i pronòstics meteorològics de més de 4000 aeroports (METAR i TAF).

Les estacions disponibles són els punts grocs i vermells al mapa.

Posi el ratolí al punt desitjat per veure el nom de l'estació.

Feu clic per veure les observacions i els pronòstics meteorològics.

Per canviar el mapa: feu clic els botons verds amb una creu de color negre per apropar; al botó verd amb un guió per allunyar la imatge; o en les fletxes verdes per a mapes adjacents.


METAR-TAF: